createdAt,value
2018-12-19T00:01:52.985Z,101722.95
2018-12-19T00:04:22.833Z,101715.72
2018-12-19T00:06:53.151Z,101713.95
2018-12-19T00:09:20.405Z,101705.98
2018-12-19T00:11:50.105Z,101707.77
2018-12-19T00:14:17.429Z,101698.88
2018-12-19T00:16:48.777Z,101700.95
2018-12-19T00:19:19.760Z,101700.30
2018-12-19T00:21:49.051Z,101693.68
2018-12-19T00:24:16.906Z,101687.00
2018-12-19T00:26:48.519Z,101690.33
2018-12-19T00:29:18.055Z,101683.41
2018-12-19T00:32:02.298Z,101688.43
2018-12-19T00:34:34.228Z,101677.92
2018-12-19T00:37:07.950Z,101680.17
2018-12-19T00:39:35.477Z,101676.22
2018-12-19T00:42:02.737Z,101682.47
2018-12-19T00:44:29.956Z,101675.64
2018-12-19T00:47:04.316Z,101679.20
2018-12-19T00:49:31.576Z,101681.86
2018-12-19T00:51:58.828Z,101681.09
2018-12-19T00:54:26.053Z,101684.17
2018-12-19T00:56:53.936Z,101673.64
2018-12-19T00:59:21.174Z,101675.45
2018-12-19T01:01:48.435Z,101684.05
2018-12-19T01:04:15.665Z,101672.51
2018-12-19T01:06:43.613Z,101673.62
2018-12-19T01:09:15.886Z,101683.92
2018-12-19T01:11:40.384Z,101678.50
2018-12-19T01:14:09.710Z,101666.22
2018-12-19T01:16:38.046Z,101674.23
2018-12-19T01:19:06.325Z,101666.02
2018-12-19T01:21:33.984Z,101663.32
2018-12-19T01:24:01.249Z,101665.70
2018-12-19T01:26:28.597Z,101664.05
2018-12-19T01:28:55.848Z,101665.89
2018-12-19T01:31:24.070Z,101657.31
2018-12-19T01:33:52.356Z,101655.47
2018-12-19T01:36:20.556Z,101650.13
2018-12-19T01:38:50.049Z,101653.87
2018-12-19T01:41:17.324Z,101644.20
2018-12-19T01:43:44.564Z,101639.39
2018-12-19T01:46:11.937Z,101627.96
2018-12-19T01:48:39.156Z,101620.48
2018-12-19T01:51:07.606Z,101617.30
2018-12-19T01:53:34.970Z,101610.52
2018-12-19T01:56:02.344Z,101608.78
2018-12-19T01:58:29.624Z,101594.16
2018-12-19T02:00:56.945Z,101595.75
2018-12-19T02:03:27.692Z,101589.49
2018-12-19T02:05:56.981Z,101589.42
2018-12-19T02:08:24.316Z,101589.11
2018-12-19T02:10:51.564Z,101575.58
2018-12-19T02:13:18.787Z,101574.97
2018-12-19T02:15:46.092Z,101577.61
2018-12-19T02:18:16.197Z,101572.15
2018-12-19T02:20:43.523Z,101567.90
2018-12-19T02:23:10.780Z,101566.89
2018-12-19T02:25:38.219Z,101549.32
2018-12-19T02:28:06.565Z,101548.62
2018-12-19T02:30:50.953Z,101545.89
2018-12-19T02:33:18.308Z,101544.56
2018-12-19T02:35:45.640Z,101541.69
2018-12-19T02:38:14.120Z,101530.78
2018-12-19T02:40:41.452Z,101510.02
2018-12-19T02:43:08.762Z,101509.92
2018-12-19T02:45:36.041Z,101503.94
2018-12-19T02:48:03.283Z,101501.49
2018-12-19T02:50:30.508Z,101493.41
2018-12-19T02:52:57.822Z,101491.42
2018-12-19T02:55:25.045Z,101487.28
2018-12-19T02:57:53.388Z,101491.31
2018-12-19T03:00:20.633Z,101480.22
2018-12-19T03:02:47.894Z,101487.02
2018-12-19T03:05:15.261Z,101485.36
2018-12-19T03:07:42.536Z,101482.88
2018-12-19T03:10:09.928Z,101467.41
2018-12-19T03:12:37.264Z,101457.52
2018-12-19T03:15:04.797Z,101451.28
2018-12-19T03:17:35.279Z,101443.00
2018-12-19T03:20:02.660Z,101440.55
2018-12-19T03:22:30.062Z,101437.05
2018-12-19T03:24:57.314Z,101413.30
2018-12-19T03:27:24.601Z,101428.81
2018-12-19T03:29:51.834Z,101425.92
2018-12-19T03:32:19.234Z,101420.88
2018-12-19T03:34:46.448Z,101408.56
2018-12-19T03:37:13.690Z,101403.64
2018-12-19T03:39:40.908Z,101405.70
2018-12-19T03:42:08.132Z,101398.60
2018-12-19T03:44:35.364Z,101406.55
2018-12-19T03:47:02.640Z,101412.32
2018-12-19T03:49:30.201Z,101417.09
2018-12-19T03:51:57.469Z,101420.98
2018-12-19T03:54:25.249Z,101412.98
2018-12-19T03:56:52.893Z,101411.73
2018-12-19T03:59:20.128Z,101414.91
2018-12-19T04:01:47.372Z,101412.19
2018-12-19T04:04:14.598Z,101411.33
2018-12-19T04:06:42.876Z,101408.81
2018-12-19T04:09:10.105Z,101413.23
2018-12-19T04:11:37.346Z,101408.31
2018-12-19T04:14:05.735Z,101391.09
2018-12-19T04:16:32.971Z,101400.66
2018-12-19T04:19:00.269Z,101394.19
2018-12-19T04:21:30.676Z,101385.91
2018-12-19T04:23:57.913Z,101392.51
2018-12-19T04:26:26.141Z,101402.47
2018-12-19T04:28:53.467Z,101393.03
2018-12-19T04:31:21.829Z,101397.56
2018-12-19T04:33:49.058Z,101391.16
2018-12-19T04:36:16.447Z,101391.28
2018-12-19T04:38:44.016Z,101402.09
2018-12-19T04:41:11.492Z,101380.33
2018-12-19T04:43:38.864Z,101386.55
2018-12-19T04:46:06.080Z,101384.59
2018-12-19T04:48:33.300Z,101379.23
2018-12-19T04:51:00.580Z,101376.52
2018-12-19T04:53:27.901Z,101384.74
2018-12-19T04:55:55.140Z,101373.36
2018-12-19T04:58:22.361Z,101366.09
2018-12-19T05:00:49.597Z,101377.83
2018-12-19T05:03:16.837Z,101368.75
2018-12-19T05:05:44.062Z,101370.49
2018-12-19T05:08:11.280Z,101373.22
2018-12-19T05:10:40.507Z,101367.14
2018-12-19T05:13:07.711Z,101367.09
2018-12-19T05:15:35.929Z,101363.89
2018-12-19T05:18:03.210Z,101358.34
2018-12-19T05:20:30.446Z,101358.28
2018-12-19T05:22:57.692Z,101348.63
2018-12-19T05:25:24.941Z,101350.31
2018-12-19T05:27:52.204Z,101357.56
2018-12-19T05:30:20.479Z,101353.82
2018-12-19T05:32:47.821Z,101353.30
2018-12-19T05:35:16.049Z,101358.78
2018-12-19T05:37:43.304Z,101349.16
2018-12-19T05:40:10.548Z,101357.69
2018-12-19T05:42:37.776Z,101353.80
2018-12-19T05:45:06.848Z,101361.58
2018-12-19T05:47:34.346Z,101359.25
2018-12-19T05:50:14.526Z,101354.59
2018-12-19T05:52:42.068Z,101350.32
2018-12-19T05:55:09.336Z,101360.21
2018-12-19T05:57:36.739Z,101347.09
2018-12-19T06:00:07.015Z,101356.41
2018-12-19T06:02:35.372Z,101343.84
2018-12-19T06:05:18.372Z,101347.08
2018-12-19T06:07:45.669Z,101352.07
2018-12-19T06:10:14.004Z,101355.48
2018-12-19T06:12:41.477Z,101352.37
2018-12-19T06:15:08.905Z,101353.69
2018-12-19T06:17:36.184Z,101356.02
2018-12-19T06:20:04.942Z,101360.02
2018-12-19T06:22:33.387Z,101359.65
2018-12-19T06:25:05.228Z,101364.81
2018-12-19T06:27:33.685Z,101370.90
2018-12-19T06:30:00.950Z,101364.02
2018-12-19T06:32:28.260Z,101363.05
2018-12-19T06:34:55.544Z,101364.34
2018-12-19T06:37:23.862Z,101369.98
2018-12-19T06:39:51.206Z,101366.38
2018-12-19T06:42:18.498Z,101365.27
2018-12-19T06:44:47.884Z,101356.05
2018-12-19T06:47:16.284Z,101355.61
2018-12-19T06:49:44.589Z,101354.71
2018-12-19T06:52:12.867Z,101358.09
2018-12-19T06:54:40.232Z,101352.52
2018-12-19T06:57:07.515Z,101352.56
2018-12-19T06:59:34.876Z,101355.84
2018-12-19T07:02:02.392Z,101342.15
2018-12-19T07:04:29.644Z,101343.77
2018-12-19T07:06:57.124Z,101350.69
2018-12-19T07:09:24.479Z,101349.98
2018-12-19T07:11:51.779Z,101354.91
2018-12-19T07:14:21.148Z,101356.77
2018-12-19T07:16:49.476Z,101351.73
2018-12-19T07:19:18.756Z,101347.71
2018-12-19T07:21:46.049Z,101345.40
2018-12-19T07:24:16.116Z,101339.44
2018-12-19T07:29:16.323Z,101329.05
2018-12-19T07:31:44.380Z,101326.82
2018-12-19T07:34:12.876Z,101331.27
2018-12-19T07:36:40.129Z,101331.02
2018-12-19T07:39:07.670Z,101322.61
2018-12-19T07:41:34.968Z,101336.97
2018-12-19T07:44:02.233Z,101332.81
2018-12-19T07:46:30.536Z,101330.13
2018-12-19T07:48:57.817Z,101325.03
2018-12-19T07:51:25.052Z,101333.03
2018-12-19T07:53:53.492Z,101320.53
2018-12-19T07:56:20.746Z,101327.01
2018-12-19T07:58:48.012Z,101324.02
2018-12-19T08:01:15.297Z,101322.27
2018-12-19T08:03:42.556Z,101324.83
2018-12-19T08:06:09.812Z,101322.17
2018-12-19T08:08:37.060Z,101328.67
2018-12-19T08:11:04.309Z,101324.26
2018-12-19T08:13:31.553Z,101319.08
2018-12-19T08:15:58.800Z,101325.17
2018-12-19T08:18:26.187Z,101318.40
2018-12-19T08:20:53.550Z,101309.52
2018-12-19T08:23:21.872Z,101318.55
2018-12-19T08:25:50.290Z,101329.44
2018-12-19T08:28:17.567Z,101329.56
2018-12-19T08:30:44.845Z,101320.49
2018-12-19T08:33:12.108Z,101318.02
2018-12-19T08:35:39.349Z,101316.08
2018-12-19T08:38:07.648Z,101324.67
2018-12-19T08:40:34.892Z,101321.98
2018-12-19T08:43:02.278Z,101329.79
2018-12-19T08:45:30.140Z,101321.52
2018-12-19T08:47:57.492Z,101322.28
2018-12-19T08:50:26.764Z,101323.92
2018-12-19T08:52:54.042Z,101322.66
2018-12-19T08:55:21.372Z,101320.91
2018-12-19T08:57:48.757Z,101323.50
2018-12-19T09:00:16.017Z,101320.41
2018-12-19T09:02:43.306Z,101324.03
2018-12-19T09:05:10.549Z,101315.59
2018-12-19T09:07:43.602Z,101314.67
2018-12-19T09:10:10.892Z,101318.51
2018-12-19T09:12:38.117Z,101321.98
2018-12-19T09:15:06.382Z,101327.34
2018-12-19T09:17:33.814Z,101327.41
2018-12-19T09:20:03.709Z,101332.48
2018-12-19T09:22:30.990Z,101343.42
2018-12-19T09:24:58.473Z,101336.84
2018-12-19T09:27:25.713Z,101352.23
2018-12-19T09:29:53.029Z,101358.59
2018-12-19T09:32:21.378Z,101356.94
2018-12-19T09:34:48.634Z,101356.80
2018-12-19T09:37:16.011Z,101358.90
2018-12-19T09:39:43.272Z,101343.62
2018-12-19T09:42:10.518Z,101342.48
2018-12-19T09:44:37.804Z,101348.13
2018-12-19T09:47:05.061Z,101345.06
2018-12-19T09:49:32.350Z,101353.30
2018-12-19T09:51:59.624Z,101347.98
2018-12-19T09:54:26.860Z,101355.83
2018-12-19T09:56:54.096Z,101343.47
2018-12-19T09:59:21.348Z,101340.59
2018-12-19T10:01:48.688Z,101343.72
2018-12-19T10:04:15.926Z,101340.22
2018-12-19T10:09:36.913Z,101333.80
2018-12-19T10:12:04.208Z,101322.43
2018-12-19T10:14:31.478Z,101322.07
2018-12-19T10:16:58.825Z,101310.61
2018-12-19T10:19:26.064Z,101307.02
2018-12-19T10:21:53.316Z,101304.92
2018-12-19T10:24:23.254Z,101305.26
2018-12-19T10:26:50.550Z,101311.81
2018-12-19T10:29:18.846Z,101306.30
2018-12-19T10:31:46.263Z,101299.12
2018-12-19T10:34:16.852Z,101291.97
2018-12-19T10:36:44.096Z,101286.06
2018-12-19T10:39:15.808Z,101299.92
2018-12-19T10:41:43.067Z,101300.75
2018-12-19T10:44:10.644Z,101277.52
2018-12-19T10:46:39.245Z,101275.02
2018-12-19T10:49:07.620Z,101284.35
2018-12-19T10:51:34.911Z,101278.19
2018-12-19T10:54:02.209Z,101274.48
2018-12-19T10:56:29.511Z,101271.53
2018-12-19T10:58:56.781Z,101279.30
2018-12-19T11:01:24.057Z,101282.16
2018-12-19T11:03:51.318Z,101281.44
2018-12-19T11:06:18.584Z,101274.29
2018-12-19T11:08:45.900Z,101272.69
2018-12-19T11:11:13.156Z,101269.73
2018-12-19T11:13:40.413Z,101273.82
2018-12-19T11:16:08.706Z,101282.91
2018-12-19T11:18:35.945Z,101272.08
2018-12-19T11:21:03.425Z,101280.59
2018-12-19T11:23:30.816Z,101280.33
2018-12-19T11:25:58.064Z,101276.89
2018-12-19T11:28:25.304Z,101268.19
2018-12-19T11:30:53.569Z,101278.35
2018-12-19T11:33:20.921Z,101274.08
2018-12-19T11:35:48.974Z,101277.05
2018-12-19T11:38:16.257Z,101278.73
2018-12-19T11:40:43.529Z,101265.27
2018-12-19T11:43:10.766Z,101265.75
2018-12-19T11:45:38.060Z,101266.05
2018-12-19T11:48:05.300Z,101262.78
2018-12-19T11:50:32.560Z,101256.67
2018-12-19T11:52:59.832Z,101257.76
2018-12-19T11:55:27.593Z,101269.48
2018-12-19T11:57:54.876Z,101263.25
2018-12-19T12:00:22.111Z,101261.41
2018-12-19T12:02:49.350Z,101254.63
2018-12-19T12:05:16.808Z,101258.52
2018-12-19T12:07:46.048Z,101259.66
2018-12-19T12:10:13.332Z,101254.37
2018-12-19T12:12:40.676Z,101253.08
2018-12-19T12:15:08.997Z,101257.27
2018-12-19T12:17:36.370Z,101254.54
2018-12-19T12:20:05.513Z,101253.55
2018-12-19T12:22:32.761Z,101252.79
2018-12-19T12:25:00.022Z,101250.28
2018-12-19T12:27:28.396Z,101250.03
2018-12-19T12:29:57.740Z,101246.00
2018-12-19T12:32:26.224Z,101248.14
2018-12-19T12:34:53.629Z,101239.98
2018-12-19T12:37:20.886Z,101237.37
2018-12-19T12:39:48.248Z,101240.94
2018-12-19T12:42:16.648Z,101243.02
2018-12-19T12:44:44.367Z,101235.32
2018-12-19T12:47:12.185Z,101236.46
2018-12-19T12:49:39.641Z,101239.73
2018-12-19T12:52:06.934Z,101240.57
2018-12-19T12:54:34.532Z,101238.68
2018-12-19T12:57:03.054Z,101241.95
2018-12-19T12:59:30.566Z,101245.24
2018-12-19T13:01:57.821Z,101243.25
2018-12-19T13:04:25.111Z,101242.41
2018-12-19T13:06:52.432Z,101239.44
2018-12-19T13:09:19.709Z,101242.33
2018-12-19T13:11:47.004Z,101239.59
2018-12-19T13:14:16.736Z,101240.11
2018-12-19T13:16:43.983Z,101239.36
2018-12-19T13:19:11.246Z,101238.66
2018-12-19T13:21:42.051Z,101235.16
2018-12-19T13:24:11.424Z,101233.23
2018-12-19T13:26:38.857Z,101237.43
2018-12-19T13:29:06.111Z,101234.84
2018-12-19T13:31:37.436Z,101233.23
2018-12-19T13:34:05.756Z,101227.83
2018-12-19T13:36:33.054Z,101225.03
2018-12-19T13:39:01.325Z,101225.06
2018-12-19T13:41:30.729Z,101228.48
2018-12-19T13:43:57.952Z,101232.78
2018-12-19T13:46:25.573Z,101224.52
2018-12-19T13:48:52.838Z,101227.51
2018-12-19T13:51:20.176Z,101235.36
2018-12-19T13:53:47.531Z,101232.34
2018-12-19T13:56:14.792Z,101232.52
2018-12-19T13:58:42.584Z,101233.23
2018-12-19T14:01:09.906Z,101235.96
2018-12-19T14:03:37.384Z,101235.28
2018-12-19T14:06:04.790Z,101234.56
2018-12-19T14:08:32.177Z,101238.00
2018-12-19T14:11:00.551Z,101241.66
2018-12-19T14:13:27.797Z,101243.98
2018-12-19T14:15:55.041Z,101239.23
2018-12-19T14:18:22.325Z,101244.09
2018-12-19T14:20:49.553Z,101244.91
2018-12-19T14:23:16.780Z,101239.17
2018-12-19T14:25:43.993Z,101239.46
2018-12-19T14:28:11.232Z,101242.31
2018-12-19T14:30:39.008Z,101242.08
2018-12-19T14:33:07.277Z,101241.66
2018-12-19T14:35:34.521Z,101244.38
2018-12-19T14:38:02.816Z,101242.64
2018-12-19T14:40:35.192Z,101243.37
2018-12-19T14:43:04.448Z,101239.44
2018-12-19T14:45:31.921Z,101240.97
2018-12-19T14:47:59.284Z,101248.70
2018-12-19T14:50:27.543Z,101238.64
2018-12-19T14:52:54.797Z,101240.42
2018-12-19T14:55:26.981Z,101245.86
2018-12-19T14:57:54.366Z,101252.22
2018-12-19T15:00:21.760Z,101246.95
2018-12-19T15:02:49.140Z,101246.48
2018-12-19T15:05:16.385Z,101246.57
2018-12-19T15:07:44.672Z,101247.98
2018-12-19T15:10:11.912Z,101249.31
2018-12-19T15:12:39.283Z,101249.63
2018-12-19T15:15:08.378Z,101255.03
2018-12-19T15:17:36.700Z,101254.09
2018-12-19T15:20:04.785Z,101259.75
2018-12-19T15:22:32.087Z,101257.30
2018-12-19T15:24:59.469Z,101260.39
2018-12-19T15:27:26.723Z,101261.67
2018-12-19T15:29:53.973Z,101258.59
2018-12-19T15:32:22.308Z,101265.75
2018-12-19T15:34:49.546Z,101260.45
2018-12-19T15:37:17.845Z,101272.13
2018-12-19T15:39:45.097Z,101265.53
2018-12-19T15:42:12.341Z,101268.21
2018-12-19T15:44:39.582Z,101263.34
2018-12-19T15:47:06.824Z,101266.40
2018-12-19T15:49:34.069Z,101274.00
2018-12-19T15:52:01.332Z,101278.20
2018-12-19T15:54:29.628Z,101274.83
2018-12-19T15:56:56.871Z,101273.44
2018-12-19T15:59:24.133Z,101274.91
2018-12-19T16:01:51.426Z,101271.66
2018-12-19T16:04:18.700Z,101263.83
2018-12-19T16:07:02.856Z,101272.20
2018-12-19T16:09:30.059Z,101264.61
2018-12-19T16:11:57.299Z,101273.50
2018-12-19T16:14:24.505Z,101279.98
2018-12-19T16:16:51.740Z,101275.28
2018-12-19T16:19:18.965Z,101277.09
2018-12-19T16:21:46.188Z,101283.11
2018-12-19T16:24:13.388Z,101280.05
2018-12-19T16:26:40.600Z,101281.44
2018-12-19T16:29:08.826Z,101282.70
2018-12-19T16:31:36.064Z,101275.74
2018-12-19T16:34:03.279Z,101277.75
2018-12-19T16:36:30.508Z,101278.63
2018-12-19T16:38:57.741Z,101277.00
2018-12-19T16:41:24.960Z,101274.23
2018-12-19T16:43:52.180Z,101263.48
2018-12-19T16:46:19.392Z,101266.70
2018-12-19T16:48:46.604Z,101266.09
2018-12-19T16:51:13.852Z,101272.77
2018-12-19T16:53:41.096Z,101270.33
2018-12-19T16:56:08.302Z,101263.87
2018-12-19T16:58:35.566Z,101274.60
2018-12-19T17:01:12.528Z,101271.81
2018-12-19T17:03:52.332Z,101277.36
2018-12-19T17:06:32.021Z,101279.25
2018-12-19T17:09:16.204Z,101286.67
2018-12-19T17:11:58.893Z,101285.17
2018-12-19T17:14:45.241Z,101285.31
2018-12-19T17:17:30.231Z,101290.52
2018-12-19T17:20:10.230Z,101297.80
2018-12-19T17:22:47.868Z,101291.04
2018-12-19T17:25:15.128Z,101288.48
2018-12-19T17:27:42.350Z,101285.73
2018-12-19T17:30:09.562Z,101288.39
2018-12-19T17:32:37.061Z,101280.41
2018-12-19T17:35:04.740Z,101274.92
2018-12-19T17:37:31.980Z,101275.81
2018-12-19T17:39:59.325Z,101271.30
2018-12-19T17:42:26.544Z,101267.87
2018-12-19T17:44:53.764Z,101263.46
2018-12-19T17:47:21.008Z,101266.02
2018-12-19T17:49:49.836Z,101261.78
2018-12-19T17:52:34.028Z,101260.34
2018-12-19T17:55:01.280Z,101264.89
2018-12-19T17:57:28.604Z,101255.84
2018-12-19T17:59:55.945Z,101256.59
2018-12-19T18:02:23.289Z,101254.27
2018-12-19T18:04:50.496Z,101248.28
2018-12-19T18:07:18.840Z,101249.03
2018-12-19T18:09:46.154Z,101253.44
2018-12-19T18:12:13.349Z,101260.06
2018-12-19T18:14:40.686Z,101263.13
2018-12-19T18:17:07.935Z,101258.16
2018-12-19T18:19:35.150Z,101258.03
2018-12-19T18:22:02.353Z,101257.56
2018-12-19T18:24:29.569Z,101265.03
2018-12-19T18:26:56.776Z,101257.78
2018-12-19T18:29:24.117Z,101257.23
2018-12-19T18:31:51.465Z,101257.16
2018-12-19T18:34:18.689Z,101262.30
2018-12-19T18:36:46.074Z,101260.58
2018-12-19T18:39:13.277Z,101262.48
2018-12-19T18:41:40.500Z,101266.86
2018-12-19T18:44:07.877Z,101269.26
2018-12-19T18:46:35.084Z,101271.58
2018-12-19T18:49:02.307Z,101269.27
2018-12-19T18:51:29.700Z,101274.92
2018-12-19T18:53:56.936Z,101272.93
2018-12-19T18:56:24.279Z,101268.98
2018-12-19T19:00:20.617Z,101272.97
2018-12-19T19:02:48.010Z,101267.78
2018-12-19T19:05:16.291Z,101262.72
2018-12-19T19:07:43.652Z,101260.73
2018-12-19T19:10:10.949Z,101265.45
2018-12-19T19:12:38.268Z,101273.17
2018-12-19T19:15:06.156Z,101272.55
2018-12-19T19:17:33.718Z,101273.48
2018-12-19T19:20:01.048Z,101276.45
2018-12-19T19:22:28.369Z,101279.23
2018-12-19T19:24:56.136Z,101273.25
2018-12-19T19:27:23.442Z,101275.25
2018-12-19T19:29:50.644Z,101277.06
2018-12-19T19:32:19.081Z,101279.10
2018-12-19T19:34:46.276Z,101281.05
2018-12-19T19:37:13.702Z,101275.53
2018-12-19T19:39:40.952Z,101276.03
2018-12-19T19:42:08.408Z,101271.91
2018-12-19T19:44:35.605Z,101279.48
2018-12-19T19:47:04.264Z,101278.45
2018-12-19T19:49:31.614Z,101281.41
2018-12-19T19:51:58.944Z,101277.94
2018-12-19T19:54:26.188Z,101278.30
2018-12-19T19:56:53.510Z,101278.22
2018-12-19T19:59:21.753Z,101277.95
2018-12-19T20:01:49.243Z,101265.00
2018-12-19T20:04:16.448Z,101275.34
2018-12-19T20:06:43.725Z,101276.63
2018-12-19T20:09:10.994Z,101269.85
2018-12-19T20:11:38.345Z,101274.55
2018-12-19T20:14:05.732Z,101266.77
2018-12-19T20:16:37.537Z,101271.45
2018-12-19T20:19:04.756Z,101265.36
2018-12-19T20:21:32.081Z,101271.30
2018-12-19T20:23:59.301Z,101264.48
2018-12-19T20:26:26.600Z,101274.88
2018-12-19T20:28:53.797Z,101272.80
2018-12-19T20:31:21.035Z,101272.14
2018-12-19T20:33:48.745Z,101270.42
2018-12-19T20:36:16.039Z,101275.39
2018-12-19T20:38:43.513Z,101268.94
2018-12-19T20:41:10.748Z,101264.02
2018-12-19T20:43:40.108Z,101269.73
2018-12-19T20:46:07.593Z,101269.83
2018-12-19T20:48:35.071Z,101272.34
2018-12-19T20:51:02.300Z,101264.53
2018-12-19T20:53:29.913Z,101273.30
2018-12-19T20:56:03.593Z,101276.17
2018-12-19T20:58:26.366Z,101273.30
2018-12-19T21:00:53.719Z,101268.75
2018-12-19T21:03:21.149Z,101265.46
2018-12-19T21:12:45.532Z,101276.97
2018-12-19T21:15:12.949Z,101273.95
2018-12-19T21:17:46.442Z,101284.03
2018-12-19T21:20:13.801Z,101278.13
2018-12-19T21:22:41.129Z,101287.19
2018-12-19T21:25:09.800Z,101289.41
2018-12-19T21:27:37.305Z,101288.99
2018-12-19T21:30:06.225Z,101289.03
2018-12-19T21:32:33.920Z,101286.48
2018-12-19T21:35:01.152Z,101291.97
2018-12-19T21:37:28.471Z,101295.63
2018-12-19T21:39:56.813Z,101291.92
2018-12-19T21:42:24.922Z,101297.34
2018-12-19T21:44:52.391Z,101286.26
2018-12-19T21:47:20.256Z,101287.47
2018-12-19T21:49:47.673Z,101295.25
2018-12-19T21:52:14.982Z,101290.02
2018-12-19T21:54:42.321Z,101288.20
2018-12-19T21:57:09.589Z,101282.77
2018-12-19T21:59:36.932Z,101291.17
2018-12-19T22:02:04.334Z,101289.73
2018-12-19T22:04:31.932Z,101292.19
2018-12-19T22:06:59.260Z,101294.02
2018-12-19T22:09:26.638Z,101293.39
2018-12-19T22:11:54.044Z,101292.14
2018-12-19T22:14:21.369Z,101289.83
2018-12-19T22:16:54.493Z,101291.87
2018-12-19T22:19:21.795Z,101289.17
2018-12-19T22:21:49.136Z,101292.19
2018-12-19T22:24:16.478Z,101292.74
2018-12-19T22:26:43.966Z,101298.41
2018-12-19T22:29:12.336Z,101292.65
2018-12-19T22:31:39.652Z,101297.56
2018-12-19T22:34:07.099Z,101297.44
2018-12-19T22:36:34.290Z,101292.09
2018-12-19T22:39:01.546Z,101289.82
2018-12-19T22:41:31.133Z,101291.92
2018-12-19T22:43:58.447Z,101289.36
2018-12-19T22:46:25.912Z,101282.72
2018-12-19T22:48:53.147Z,101280.03
2018-12-19T22:51:20.476Z,101285.45
2018-12-19T22:53:47.849Z,101286.11
2018-12-19T22:56:15.173Z,101274.73
2018-12-19T22:58:42.559Z,101278.36
2018-12-19T23:01:16.459Z,101280.03
2018-12-19T23:04:06.273Z,101282.91
2018-12-19T23:06:35.208Z,101281.15
2018-12-19T23:09:04.644Z,101284.63
2018-12-19T23:11:34.112Z,101283.52
2018-12-19T23:14:03.143Z,101286.84
2018-12-19T23:16:38.781Z,101285.97
2018-12-19T23:19:12.062Z,101282.25
2018-12-19T23:21:45.777Z,101277.52
2018-12-19T23:24:19.500Z,101275.25
2018-12-19T23:26:48.775Z,101270.57
2018-12-19T23:29:18.059Z,101270.97
2018-12-19T23:31:46.954Z,101272.88
2018-12-19T23:34:14.326Z,101264.55
2018-12-19T23:36:41.765Z,101274.03
2018-12-19T23:39:09.214Z,101265.45
2018-12-19T23:41:36.660Z,101267.18
2018-12-19T23:44:03.908Z,101268.18
2018-12-19T23:46:33.471Z,101265.27
2018-12-19T23:49:00.853Z,101256.09
2018-12-19T23:51:28.236Z,101263.22
2018-12-19T23:53:55.643Z,101259.59
2018-12-19T23:56:22.897Z,101262.53
2018-12-19T23:58:51.172Z,101260.83
